Racecast

Noah Hall

Temperance Bedford (MI) · 12 · SECMI D1MONROE · Compare head to head

Athlete rating 117.2 2020 XC season
Best race 120.6 XC
Races 54
Seasons 7 2014 — 2020

RankedNation #26458·MI #3129·MI D1 #1873·SEC #197·Team #69 ?

Rating scale ?

Cross Country

2020 XC 113.0

Temperance Bedford (MI) · Grade 12

Date Meet Event Result Place Rating Difficulty PR/SR Flags
2020-10-17 Indian Creek OFFICIAL 5000m 19:27.2 42nd · 7th on team 114.2 +0.039 ★PR ★CR SR CSR RSR
2020-09-26 Indian Creek OFFICIAL 5000m 19:52.5 40th · 12th on team 114.0 +0.039 RSR
2020-09-19 Indian Creek OFFICIAL 5000m 19:38 13th · 10th on team 112.8 +0.039 PR CR SR CSR RSR
2020-08-29 Indian Creek OFFICIAL 5000m 20:05 13th · 9th on team 111.5 +0.039
2020-08-22 Indian Creek OFFICIAL 5000m 20:05 15th · 8th on team 112.4 +0.039 CR SR CSR RSR

2019 XC 106.9

Temperance Bedford (MI) · Grade 11

Date Meet Event Result Place Rating Difficulty PR/SR Flags
2019-10-26 Lake Erie Metro Park OFFICIAL 5000m 19:51.4 82nd · 7th on team 113.0 +0.055 PR ★CR SR CSR RSR
2019-10-17 Hudson Mills Metropark - OFFICIAL 5000m 20:09 151st · 7th on team 109.5 +0.036 SR CSR
2019-10-12 Munson Park 5000m 20:15.1 32nd · 9th on team 110.9 +0.054 SR CSR RSR
2019-10-05 Portage West MS 5000m 21:40 514th · 13th on team 101.5 +0.038 CSR
2019-09-10 Hudson Mills Metropark - OFFICIAL 5000m 20:53.5 74th · 3rd on team 105.0 +0.036 CSR RSR
2019-09-07 Hedges Boyer Park 5000m 20:17 202nd · 5th on team 101.3 -0.036 ★CR SR CSR RSR

2018 XC 106.9

Temperance Bedford (MI) · Grade 10

Date Meet Event Result Place Rating Difficulty PR/SR Flags
2018-10-27 Lake Erie Metro Park OFFICIAL 5000m 20:22.1 91st · 14th on team 110.3 +0.055 CSR
2018-10-18 Hudson Mills Metropark - OFFICIAL 5000m 19:59.9 146th · 15th on team 109.9 +0.036 PR ★CR SR CSR
2018-10-13 Munson Park 5000m 20:05.3 26th · 7th on team 111.1 +0.054 PR ★CR SR CSR RSR
2018-10-09 Indian Creek OFFICIAL 5000m 21:11 23rd · 17th on team 106.2 +0.039 CSR
2018-10-06 Portage West MS 5000m 21:18.8 424th · 16th on team 103.9 +0.038 ★CR CSR
2018-09-29 Lake Erie Metro Park OFFICIAL 5000m 20:47.2 134th · 19th on team 108.0 +0.055 CSR
2018-09-25 Cass Benton Park OFFICIAL 5000m 21:45.6 94th · 13th on team 106.5 +0.091 ★CR CSR
2018-09-21 Ella Sharp Park OFFICIAL 5000m 20:35.4 148th · 15th on team 108.5 +0.038 ★CR SR CSR RSR
2018-09-06 Willow Metropark OFFICIAL 5000m 21:48.7 149th · 14th on team 101.5 +0.048 ★CR SR CSR
2018-08-31 Oakland University 4000m 17:11.4 103rd · 12th on team 102.8 +0.054 ★PR ★CR SR CSR RSR

2017 XC 102.7

Temperance Bedford (MI) · Grade 9

Date Meet Event Result Place Rating Difficulty PR/SR Flags
2017-10-28 Lake Erie Metro Park OFFICIAL 5000m 20:05.9 73rd · 13th on team 111.0 +0.055 PR CR SR CSR RSR
2017-10-19 Hudson Mills Metropark - OFFICIAL 5000m 20:47.8 186th · 17th on team 106.2 +0.036 CR CSR
2017-10-10 Indian Creek OFFICIAL 5000m 20:37.8 19th · 15th on team 107.0 +0.039 PR CR SR CSR RSR
2017-10-07 Portage West MS 5000m 21:45.2 501st · 16th on team 102.3 +0.038 CR CSR
2017-09-30 Lake Erie Metro Park OFFICIAL 5000m 21:13.3 136th · 16th on team 104.5 +0.055 CR CSR
2017-09-22 Ella Sharp Park OFFICIAL 5000m 21:12.7 40th · 14th on team 106.0 +0.038 CR CSR RSR
2017-09-12 Hudson Mills Metropark - OFFICIAL 5000m 21:11.3 152nd · 12th on team 103.8 +0.036 PR CR SR CSR RSR
2017-09-09 Hedges Boyer Park 5000m 21:21.3 292nd · 8th on team 95.8 -0.036 PR CR SR CSR
2017-09-01 Oakland University 4000m 17:36.4 128th · 13th on team 98.0 +0.054 PR CR SR CSR RSR
2017-08-26 Walsh Park 5000m 22:34.2 102nd · 23rd on team 92.2 -0.009 PR ★CR SR CSR RSR

2016 XC 110.9

Temperance Bedford (MI) · Grade 8

Date Meet Event Result Place Rating Difficulty PR/SR Flags
2016-10-15 Munson Park 3200m 14:13.3 50th · 22nd on team 119.2 +0.034 ★PR ★CR SR CSR RSR
2016-10-12 Heritage Park (Adrian) OFFICIAL 3218m 14:33.5 96th · 24th on team 117.7 +0.046 ★CR CSR
2016-10-08 Monroe County Comm College 3218m 14:22.7 47th · 20th on team 114.7 +0.007 ★PR ★CR SR CSR
2016-10-01 Pearson's Metro Park 3000m 14:37.6 101st · 19th on team 104.2 ★CR CSR
2016-09-28 Hudson Mills Metropark - OFFICIAL 3218m 14:38.5 109th · 23rd on team 119.1 +0.062 SR CSR RSR
2016-09-24 Maumee Bay State Park 3218m 15:24.5 159th · 22nd on team 102.6 -0.033 ★CR SR CSR
2016-09-14 Rolling Hills 3000m 14:03.1 89th · 24th on team 116.0 +0.071 ★PR ★CR SR CSR RSR
2016-09-10 Hedges Boyer Park 3200m 15:04.9 22nd · 9th on team 99.4 -0.089 ★CR CSR
2016-09-01 Eastwood HS 3200m 14:42.8 124th · 17th on team 104.9 -0.060 PR ★CR SR CSR RSR

2015 XC 104.7

Temperance Bedford (MI) · Grade 7

Date Meet Event Result Place Rating Difficulty PR/SR Flags
2015-10-24 Hudson Mills Metropark - OFFICIAL 3218m 14:28.2 83rd · 9th on team 120.6 +0.062 PR ★CR ★R SR CSR RSR
2015-10-17 Munson Park 3200m 15:02.1 56th · 23rd on team 111.7 +0.034 PR CR SR CSR
2015-10-14 Munson Park 3200m 15:51.5 114th · 22nd on team 105.1 +0.034 CR CSR
2015-09-30 Hudson Mills Metropark - OFFICIAL 3200m 15:25.1 105th · 21st on team 112.6 +0.062 PR ★CR SR CSR RSR
2015-09-26 Sterling State Park 3218m 16:22.9 103rd · 22nd on team 106.2 +0.057 PR ★CR SR CSR RSR
2015-09-16 Mill Pond Park 3621m 20:45.9 128th · 24th on team 98.2 +0.099 ★PR ★CR SR CSR RSR
2015-09-12 Hedges Boyer Park 3200m 16:40.5 53rd · 23rd on team 88.4 -0.089 CR CSR
2015-08-27 Eastwood HS 3200m 15:53.9 145th · 19th on team 94.9 -0.060 PR CR SR CSR RSR

2014 XC 104.3

Temperance Bedford (MI) · Grade 6

Date Meet Event Result Place Rating Difficulty PR/SR Flags
2014-10-11 Munson Park 2000m 9:21.1 30th · 8th on team 91.3 +0.073 ★PR ★CR SR CSR
2014-09-20 Sterling State Park 2092m 9:06 62nd · 8th on team 115.6 -0.003 ★PR ★CR R SR CSR RSR
2014-09-17 Indian Creek OFFICIAL 2400m 11:22.2 7th · 7th on team 106.1 +0.003 ★PR ★CR R SR CSR RSR

Track & Field

2019 TF 90.3

Temperance Bedford (MI) · Grade 10

Date Meet Event Result Place Rating Difficulty PR/SR Flags
2019-04-30 SEC-R: Monroe & Bedford @ Skyline 1600m 6:01.35 40th · 12th on team 94.7 -0.033 ★PR SR RSR
2019-04-23 SEC Red Division - Bedford vs Saline 1600m 6:12.57 30th · 16th on team 92.6 -0.033 PR SR RSR
2019-04-09 SEC-R: Bedford @ Pioneer 800m 3:03.84 33rd · 13th on team 83.5 -0.028 ★PR SR RSR